Time;durP1;ratioP1;P1;durP2;ratioP2;P2;SDS_P1;SDS_P2;PMS_P1;PMS_P2;Temp;Humidity;BMP_temperature;BMP_pressure;BME280_temperature;BME280_humidity;BME280_pressure;Samples;Min_cycle;Max_cycle;Signal;HPM_P1;HPM_P2
2021/12/06 00:01:39;;;;;;;30.67;23.75;;;3.50;99.90;;;;;;4996354;28;20498;-73
2021/12/06 00:04:17;;;;;;;27.63;20.88;;;3.50;99.90;;;;;;4991243;28;20049;-73
2021/12/06 00:06:46;;;;;;;28.75;21.98;;;3.50;99.90;;;;;;4995879;28;20080;-73
2021/12/06 00:09:15;;;;;;;31.80;22.38;;;3.50;99.90;;;;;;4995916;28;20494;-72
2021/12/06 00:11:40;;;;;;;28.63;22.50;;;3.40;99.90;;;;;;4996206;28;20049;-73
2021/12/06 00:14:07;;;;;;;27.45;20.80;;;3.40;99.90;;;;;;4979561;28;20486;-73
2021/12/06 00:16:33;;;;;;;29.50;21.80;;;3.40;99.90;;;;;;4995842;28;20042;-73
2021/12/06 00:18:59;;;;;;;28.77;21.83;;;3.40;99.90;;;;;;4995724;28;20617;-73
2021/12/06 00:21:25;;;;;;;31.42;22.08;;;3.40;99.90;;;;;;4995819;28;20124;-73
2021/12/06 00:23:51;;;;;;;33.03;23.35;;;3.40;99.90;;;;;;4995996;28;20050;-73
2021/12/06 00:26:17;;;;;;;30.33;22.05;;;3.40;99.90;;;;;;4995775;28;20391;-73
2021/12/06 00:28:45;;;;;;;31.23;22.48;;;3.40;99.90;;;;;;4979451;28;20042;-73
2021/12/06 00:31:13;;;;;;;30.38;22.55;;;3.40;99.90;;;;;;4995700;28;20041;-73
2021/12/06 00:33:40;;;;;;;33.95;23.27;;;3.40;99.90;;;;;;4995610;28;20449;-73
2021/12/06 00:36:15;;;;;;;32.95;22.67;;;3.40;99.90;;;;;;4995608;28;20056;-73
2021/12/06 00:38:44;;;;;;;33.65;23.77;;;3.40;99.90;;;;;;4995922;28;20046;-73
2021/12/06 00:41:10;;;;;;;31.02;22.30;;;3.40;99.90;;;;;;4983546;28;20104;-73
2021/12/06 00:43:35;;;;;;;36.50;25.27;;;3.40;99.90;;;;;;4999508;28;20034;-73
2021/12/06 00:46:01;;;;;;;34.97;25.17;;;3.40;99.90;;;;;;4983661;28;20038;-73
2021/12/06 00:48:27;;;;;;;37.25;25.02;;;3.40;99.90;;;;;;4999519;28;20450;-73
2021/12/06 00:50:53;;;;;;;35.22;24.40;;;3.40;99.90;;;;;;4999770;28;20036;-73
2021/12/06 00:53:19;;;;;;;35.70;24.65;;;3.40;99.90;;;;;;4999687;28;20038;-73
2021/12/06 00:55:45;;;;;;;36.83;25.75;;;3.40;99.90;;;;;;4983457;28;20406;-73
2021/12/06 00:58:10;;;;;;;36.05;25.80;;;3.40;99.90;;;;;;4999683;28;20494;-73
2021/12/06 01:00:40;;;;;;;37.00;25.83;;;3.40;99.90;;;;;;4999328;28;20513;-73
2021/12/06 01:03:13;;;;;;;38.88;26.27;;;3.40;99.90;;;;;;4999190;28;20041;-73
2021/12/06 01:05:39;;;;;;;33.03;23.42;;;3.40;99.90;;;;;;4999589;28;20088;-73
2021/12/06 01:08:05;;;;;;;36.22;24.67;;;3.40;99.90;;;;;;4999253;28;20042;-73
2021/12/06 01:10:33;;;;;;;35.00;24.15;;;3.40;99.90;;;;;;4999092;28;20490;-73
2021/12/06 01:12:59;;;;;;;37.80;25.58;;;3.40;99.90;;;;;;4999024;28;20076;-73
2021/12/06 01:15:26;;;;;;;36.45;24.98;;;3.50;99.90;;;;;;4999003;28;20552;-73
2021/12/06 01:17:52;;;;;;;37.28;26.27;;;3.50;99.90;;;;;;4999273;28;20152;-73
2021/12/06 01:20:22;;;;;;;38.25;27.00;;;3.50;99.90;;;;;;4998996;28;20034;-73
2021/12/06 01:30:27;;;;;;;41.15;27.10;;;3.50;99.90;;;;;;4998808;28;20037;-73
2021/12/06 01:33:17;;;;;;;37.03;26.10;;;3.50;99.90;;;;;;4998777;28;20080;-73
2021/12/06 01:41:13;;;;;;;38.03;25.75;;;3.60;99.90;;;;;;4998569;28;20050;-73
2021/12/06 01:44:04;;;;;;;38.17;26.20;;;3.60;99.90;;;;;;4982315;28;20120;-73
2021/12/06 01:46:31;;;;;;;34.55;25.30;;;3.60;99.90;;;;;;4998553;28;20048;-73
2021/12/06 01:48:58;;;;;;;34.70;24.25;;;3.60;99.90;;;;;;4998355;28;20061;-73
2021/12/06 01:51:24;;;;;;;34.30;24.42;;;3.60;99.90;;;;;;4998295;28;20413;-73
2021/12/06 01:53:50;;;;;;;36.67;26.02;;;3.70;99.90;;;;;;4998560;28;20072;-73
2021/12/06 01:56:16;;;;;;;35.88;24.65;;;3.60;99.90;;;;;;4998378;28;20042;-73
2021/12/06 01:58:44;;;;;;;37.75;25.25;;;3.70;99.90;;;;;;4998579;28;20045;-73
2021/12/06 02:01:10;;;;;;;34.65;24.17;;;3.70;99.90;;;;;;4998179;28;20494;-73
2021/12/06 02:03:37;;;;;;;37.80;26.35;;;3.60;99.90;;;;;;4998241;28;20050;-73
2021/12/06 02:06:04;;;;;;;38.20;26.45;;;3.60;99.90;;;;;;4998452;28;20038;-73
2021/12/06 02:08:29;;;;;;;38.10;26.02;;;3.60;99.90;;;;;;4998089;28;20084;-73
2021/12/06 02:11:00;;;;;;;38.63;27.13;;;3.60;99.90;;;;;;4982164;28;20037;-73
2021/12/06 02:13:30;;;;;;;36.67;25.35;;;3.60;99.90;;;;;;4998210;28;20449;-73
2021/12/06 02:15:56;;;;;;;38.83;26.40;;;3.60;99.90;;;;;;4981858;28;20030;-73
2021/12/06 02:21:03;;;;;;;38.33;26.40;;;3.60;99.90;;;;;;4998146;28;20107;-73
2021/12/06 02:23:29;;;;;;;38.47;26.67;;;3.60;99.90;;;;;;4981721;28;20037;-73
2021/12/06 02:25:54;;;;;;;35.40;24.58;;;3.60;99.90;;;;;;4997763;28;20108;-73
2021/12/06 02:28:20;;;;;;;38.80;26.50;;;3.50;99.90;;;;;;4981505;28;20530;-73
2021/12/06 02:30:46;;;;;;;39.85;26.50;;;3.60;99.90;;;;;;4998039;28;20030;-73
2021/12/06 02:33:11;;;;;;;38.65;25.52;;;3.60;99.90;;;;;;4997641;28;20402;-73
2021/12/06 02:35:37;;;;;;;38.70;25.88;;;3.50;99.90;;;;;;4997684;28;20038;-73
2021/12/06 02:38:07;;;;;;;43.25;27.23;;;3.50;99.90;;;;;;4981752;28;20050;-73
2021/12/06 02:40:34;;;;;;;37.00;25.20;;;3.50;99.90;;;;;;4997548;28;20503;-73
2021/12/06 02:43:01;;;;;;;39.10;25.88;;;3.50;99.90;;;;;;4997445;28;20506;-73
2021/12/06 02:45:29;;;;;;;35.92;24.23;;;3.50;99.90;;;;;;4997440;28;20121;-73
2021/12/06 02:47:57;;;;;;;39.08;26.10;;;3.50;99.90;;;;;;4997295;28;20391;-73
2021/12/06 02:50:29;;;;;;;34.53;24.00;;;3.50;99.90;;;;;;4997351;28;20525;-73
2021/12/06 02:52:55;;;;;;;36.30;24.67;;;3.50;99.90;;;;;;4997592;28;20034;-73
2021/12/06 02:55:31;;;;;;;40.20;25.17;;;3.50;99.90;;;;;;4997200;28;20051;-73
2021/12/06 02:58:16;;;;;;;37.63;25.58;;;3.50;99.90;;;;;;4997511;28;20046;-73
2021/12/06 03:00:49;;;;;;;38.33;24.00;;;3.50;99.90;;;;;;4981252;28;20100;-73
2021/12/06 03:03:18;;;;;;;37.83;24.67;;;3.50;99.90;;;;;;4996263;28;20401;-73
2021/12/06 03:05:44;;;;;;;34.30;23.00;;;3.50;99.90;;;;;;5018191;23;20462;-70
2021/12/06 03:08:09;;;;;;;38.50;25.52;;;3.50;99.90;;;;;;4993742;28;20038;-70
2021/12/06 03:10:35;;;;;;;36.22;24.27;;;3.50;99.90;;;;;;4993838;28;20035;-70
2021/12/06 03:13:01;;;;;;;38.28;25.58;;;3.50;99.90;;;;;;4977346;28;20116;-70
2021/12/06 03:15:28;;;;;;;40.55;26.60;;;3.50;99.90;;;;;;4993605;28;20505;-70
2021/12/06 03:17:53;;;;;;;41.95;26.27;;;3.50;99.90;;;;;;4993883;28;20042;-70
2021/12/06 03:20:19;;;;;;;39.33;26.25;;;3.50;99.90;;;;;;4977403;28;20039;-70
2021/12/06 03:22:45;;;;;;;43.28;27.10;;;3.50;99.90;;;;;;4977631;28;20053;-70
2021/12/06 03:25:13;;;;;;;41.35;26.48;;;3.50;99.90;;;;;;4993687;28;20391;-70
2021/12/06 03:27:39;;;;;;;47.88;28.08;;;3.60;99.90;;;;;;4977444;28;20038;-70
2021/12/06 03:30:08;;;;;;;40.70;27.35;;;3.60;99.90;;;;;;4993690;28;20402;-70
2021/12/06 03:32:33;;;;;;;40.90;27.17;;;3.50;99.90;;;;;;4993812;28;20077;-70
2021/12/06 03:35:00;;;;;;;45.95;29.13;;;3.50;99.90;;;;;;4993222;28;20125;-70
2021/12/06 03:37:26;;;;;;;40.65;27.13;;;3.60;99.90;;;;;;4993251;28;20511;-70
2021/12/06 03:39:52;;;;;;;37.95;25.17;;;3.50;99.90;;;;;;4994490;28;20510;-70
2021/12/06 03:42:21;;;;;;;42.20;27.60;;;3.60;99.90;;;;;;4993431;28;20038;-70
2021/12/06 03:44:47;;;;;;;41.72;26.60;;;3.60;99.90;;;;;;4993361;28;20104;-70
2021/12/06 03:47:20;;;;;;;40.38;26.25;;;3.60;99.90;;;;;;4993020;28;20422;-70
2021/12/06 03:49:45;;;;;;;41.92;26.73;;;3.70;99.90;;;;;;4993098;28;20053;-70
2021/12/06 03:52:13;;;;;;;40.40;27.90;;;3.70;99.90;;;;;;4993328;28;20042;-70
2021/12/06 03:54:40;;;;;;;43.33;27.73;;;3.70;99.90;;;;;;4992898;28;20093;-70
2021/12/06 03:57:06;;;;;;;41.53;27.63;;;3.70;99.90;;;;;;4992926;28;20042;-70
2021/12/06 03:59:33;;;;;;;44.50;27.65;;;3.70;99.90;;;;;;4992881;28;20049;-70
2021/12/06 04:01:58;;;;;;;43.28;28.50;;;3.70;99.90;;;;;;4992877;28;20047;-70
2021/12/06 04:04:25;;;;;;;44.58;28.38;;;3.70;99.90;;;;;;4977143;28;20089;-70
2021/12/06 04:06:51;;;;;;;46.53;29.23;;;3.70;99.90;;;;;;4992757;28;20078;-70
2021/12/06 04:09:17;;;;;;;47.70;30.48;;;3.60;99.90;;;;;;4992796;28;20438;-70
2021/12/06 04:11:44;;;;;;;43.47;28.42;;;3.70;99.90;;;;;;4992749;28;20096;-70
2021/12/06 04:14:09;;;;;;;43.70;29.00;;;3.70;99.90;;;;;;4991773;28;20038;-70
2021/12/06 04:16:35;;;;;;;48.53;29.33;;;3.70;99.90;;;;;;4976541;28;20054;-70
2021/12/06 04:19:03;;;;;;;48.28;29.30;;;3.70;99.90;;;;;;4992633;28;20057;-70
2021/12/06 04:21:28;;;;;;;49.53;30.60;;;3.70;99.90;;;;;;4992613;28;20042;-70
2021/12/06 04:23:54;;;;;;;50.22;31.45;;;3.70;99.90;;;;;;4992530;28;20099;-70
2021/12/06 04:26:21;;;;;;;48.85;29.88;;;3.70;99.90;;;;;;4992592;28;20041;-70
2021/12/06 04:28:58;;;;;;;49.15;29.88;;;3.70;99.90;;;;;;4992510;28;20039;-70
2021/12/06 04:31:24;;;;;;;49.78;30.50;;;3.70;99.90;;;;;;4992565;28;20085;-70
2021/12/06 04:33:49;;;;;;;51.72;30.95;;;3.70;99.90;;;;;;4992463;28;20066;-70
2021/12/06 04:36:15;;;;;;;48.65;30.52;;;3.60;99.90;;;;;;4992454;28;20105;-70
2021/12/06 04:38:41;;;;;;;52.67;31.85;;;3.60;99.90;;;;;;4992452;28;20053;-70
2021/12/06 04:41:07;;;;;;;51.22;31.15;;;3.70;99.90;;;;;;4992399;28;20085;-70
2021/12/06 04:43:32;;;;;;;55.05;32.75;;;3.60;99.90;;;;;;4976428;28;20130;-70
2021/12/06 04:45:58;;;;;;;50.15;31.38;;;3.70;99.90;;;;;;4992343;28;20406;-70
2021/12/06 04:48:25;;;;;;;54.13;31.88;;;3.60;99.90;;;;;;4992275;28;20042;-70
2021/12/06 04:50:50;;;;;;;51.30;32.42;;;3.70;99.90;;;;;;4976168;28;20089;-70
2021/12/06 04:53:23;;;;;;;55.65;32.28;;;3.70;99.90;;;;;;4992346;28;20038;-70
2021/12/06 04:56:02;;;;;;;46.92;29.42;;;3.70;99.90;;;;;;4992292;28;20085;-70
2021/12/06 04:58:30;;;;;;;44.97;28.88;;;3.70;99.90;;;;;;4992582;28;20046;-70
2021/12/06 05:01:03;;;;;;;50.72;30.88;;;3.70;99.90;;;;;;4992264;28;20047;-70
2021/12/06 05:03:30;;;;;;;48.30;29.45;;;3.70;99.90;;;;;;4992524;28;20433;-70
2021/12/06 05:06:00;;;;;;;48.90;30.95;;;3.70;99.90;;;;;;4992330;28;20057;-70
2021/12/06 05:08:29;;;;;;;52.45;30.63;;;3.70;99.90;;;;;;4992162;28;20096;-70
2021/12/06 05:10:57;;;;;;;46.47;28.95;;;3.70;99.90;;;;;;4975977;28;20126;-70
2021/12/06 05:13:24;;;;;;;46.97;28.38;;;3.80;99.90;;;;;;4992361;28;20125;-70
2021/12/06 05:15:50;;;;;;;51.03;31.00;;;3.70;99.90;;;;;;4992073;28;20077;-70
2021/12/06 05:18:15;;;;;;;47.63;29.67;;;3.80;99.90;;;;;;4992120;28;20077;-70
2021/12/06 05:20:41;;;;;;;48.08;30.50;;;3.70;99.90;;;;;;4992347;28;20051;-70
2021/12/06 05:23:08;;;;;;;41.17;26.98;;;3.80;99.90;;;;;;4992128;28;20594;-70
2021/12/06 05:25:34;;;;;;;47.40;29.33;;;3.80;99.90;;;;;;4993250;28;20046;-70
2021/12/06 05:28:00;;;;;;;49.17;28.75;;;3.80;99.90;;;;;;4995599;28;20042;-70
2021/12/06 05:30:28;;;;;;;47.22;29.10;;;3.70;99.90;;;;;;4995664;28;20046;-70
2021/12/06 05:32:57;;;;;;;51.28;30.30;;;3.70;99.90;;;;;;4995643;28;20125;-70
2021/12/06 05:35:23;;;;;;;51.42;29.23;;;3.70;99.90;;;;;;4995762;28;20503;-70
2021/12/06 05:37:55;;;;;;;52.70;30.95;;;3.70;99.90;;;;;;4995519;28;20058;-70
2021/12/06 05:40:29;;;;;;;49.55;29.88;;;3.70;99.90;;;;;;4995522;28;20038;-70
2021/12/06 05:42:57;;;;;;;53.83;31.08;;;3.70;99.90;;;;;;4995450;28;20129;-70
2021/12/06 05:45:25;;;;;;;51.63;31.77;;;3.60;99.90;;;;;;4995568;28;20498;-70
2021/12/06 05:47:52;;;;;;;52.10;30.45;;;3.60;99.90;;;;;;4995427;28;20042;-70
2021/12/06 05:50:18;;;;;;;51.20;30.63;;;3.60;99.90;;;;;;4995322;28;20081;-70
2021/12/06 05:52:45;;;;;;;50.75;29.83;;;3.70;99.90;;;;;;4995550;28;20053;-70
2021/12/06 05:55:11;;;;;;;51.90;31.55;;;3.60;99.90;;;;;;4995147;28;20038;-70
2021/12/06 05:57:38;;;;;;;51.47;30.35;;;3.60;99.90;;;;;;4978947;28;20038;-70
2021/12/06 06:00:08;;;;;;;50.47;29.95;;;3.60;99.90;;;;;;4979206;28;20090;-70
2021/12/06 06:02:33;;;;;;;51.83;29.77;;;3.60;99.90;;;;;;4978911;28;20057;-70
2021/12/06 06:04:59;;;;;;;54.20;31.13;;;3.70;99.90;;;;;;4994832;28;20042;-70
2021/12/06 06:07:25;;;;;;;49.42;29.52;;;3.60;99.90;;;;;;4994886;28;20046;-70
2021/12/06 06:09:50;;;;;;;49.13;29.90;;;3.60;99.90;;;;;;4994906;28;20046;-70
2021/12/06 06:12:16;;;;;;;54.00;31.88;;;3.60;99.90;;;;;;4994901;28;20038;-70
2021/12/06 06:14:42;;;;;;;53.75;31.30;;;3.70;99.90;;;;;;4995024;28;20039;-70
2021/12/06 06:17:13;;;;;;;55.35;30.77;;;3.70;99.90;;;;;;4994777;28;20402;-70
2021/12/06 06:19:43;;;;;;;52.63;31.25;;;3.70;99.90;;;;;;4994804;28;20042;-70
2021/12/06 06:22:09;;;;;;;58.20;31.92;;;3.70;99.90;;;;;;4978517;28;20113;-70
2021/12/06 06:24:34;;;;;;;55.17;30.80;;;3.60;99.90;;;;;;4994840;28;20125;-70
2021/12/06 06:27:00;;;;;;;53.75;31.08;;;3.70;99.90;;;;;;4994764;28;20388;-70
2021/12/06 06:29:26;;;;;;;50.67;30.58;;;3.70;99.90;;;;;;4994589;28;20038;-70
2021/12/06 06:31:52;;;;;;;54.22;31.17;;;3.60;99.90;;;;;;4994738;28;20042;-70
2021/12/06 06:34:17;;;;;;;52.22;30.20;;;3.60;99.90;;;;;;4994397;28;20075;-70
2021/12/06 06:36:43;;;;;;;56.53;30.95;;;3.60;99.90;;;;;;4993972;28;20026;-70
2021/12/06 06:39:10;;;;;;;50.80;29.77;;;3.60;99.90;;;;;;4994195;28;20490;-70
2021/12/06 06:41:36;;;;;;;51.45;29.73;;;3.60;99.90;;;;;;4994298;28;20050;-70
2021/12/06 06:44:02;;;;;;;51.13;28.60;;;3.60;99.90;;;;;;4994524;28;20046;-70
2021/12/06 06:46:28;;;;;;;51.30;28.83;;;3.60;99.90;;;;;;4994226;28;20034;-70
2021/12/06 06:48:54;;;;;;;53.05;30.58;;;3.60;99.90;;;;;;4994147;28;20046;-70
2021/12/06 06:51:20;;;;;;;50.78;30.60;;;3.60;99.90;;;;;;4994174;28;20042;-70
2021/12/06 06:53:46;;;;;;;52.67;31.35;;;3.60;99.90;;;;;;4994343;28;20046;-70
2021/12/06 06:56:12;;;;;;;46.75;27.35;;;3.60;99.90;;;;;;4994363;28;20523;-70
2021/12/06 06:58:37;;;;;;;47.83;28.58;;;3.60;99.90;;;;;;4994281;28;20514;-70
2021/12/06 07:01:03;;;;;;;49.53;28.05;;;3.60;99.90;;;;;;4994581;28;20398;-69
2021/12/06 07:03:31;;;;;;;49.13;28.40;;;3.60;99.90;;;;;;4993965;28;20414;-70
2021/12/06 07:06:01;;;;;;;45.40;27.42;;;3.60;99.90;;;;;;4993680;28;20517;-70
2021/12/06 07:08:27;;;;;;;49.97;29.10;;;3.60;99.90;;;;;;4993760;28;20055;-70
2021/12/06 07:10:54;;;;;;;50.47;29.50;;;3.60;99.90;;;;;;4993771;28;20041;-70
2021/12/06 07:13:21;;;;;;;53.38;29.08;;;3.60;99.90;;;;;;4993690;28;20498;-70
2021/12/06 07:15:47;;;;;;;59.08;30.63;;;3.60;99.90;;;;;;4993647;28;20050;-70
2021/12/06 07:18:13;;;;;;;49.17;27.80;;;3.60;99.90;;;;;;4977516;28;20034;-70
2021/12/06 07:20:39;;;;;;;51.13;29.65;;;3.60;99.90;;;;;;4993633;28;20049;-70
2021/12/06 07:23:05;;;;;;;51.53;29.90;;;3.60;99.90;;;;;;4977315;28;20097;-70
2021/12/06 07:25:31;;;;;;;59.70;30.77;;;3.60;99.90;;;;;;4993675;28;20126;-70
2021/12/06 07:27:58;;;;;;;45.85;26.55;;;3.50;99.90;;;;;;4993418;28;20038;-70
2021/12/06 07:30:24;;;;;;;58.95;29.80;;;3.50;99.90;;;;;;4993351;28;20050;-70
2021/12/06 07:32:54;;;;;;;52.03;26.65;;;3.50;99.90;;;;;;4993632;28;20042;-70
2021/12/06 07:35:20;;;;;;;50.60;27.60;;;3.50;99.90;;;;;;4993526;28;20036;-70
2021/12/06 07:37:47;;;;;;;49.50;27.63;;;3.50;99.90;;;;;;4993246;28;20459;-70
2021/12/06 07:40:15;;;;;;;46.88;26.73;;;3.50;99.90;;;;;;4977046;28;20101;-70
2021/12/06 07:42:42;;;;;;;46.97;26.98;;;3.50;99.90;;;;;;4993241;28;20048;-70
2021/12/06 07:45:10;;;;;;;42.05;25.73;;;3.50;99.90;;;;;;4993130;28;20129;-70
2021/12/06 07:47:37;;;;;;;49.33;26.25;;;3.50;99.90;;;;;;4976808;28;20100;-70
2021/12/06 07:50:07;;;;;;;46.63;26.42;;;3.50;99.90;;;;;;4993142;28;20441;-70
2021/12/06 07:52:33;;;;;;;44.80;26.13;;;3.50;99.90;;;;;;4993050;28;20042;-70
2021/12/06 07:55:01;;;;;;;44.55;26.25;;;3.50;99.90;;;;;;4992978;28;20121;-70
2021/12/06 07:57:28;;;;;;;46.67;27.08;;;3.60;99.90;;;;;;4976773;28;20057;-70
2021/12/06 07:59:55;;;;;;;43.38;25.17;;;3.60;99.90;;;;;;4992902;28;20053;-70
2021/12/06 08:02:20;;;;;;;45.35;26.58;;;3.60;99.90;;;;;;4992882;28;20407;-70
2021/12/06 08:04:59;;;;;;;48.10;25.77;;;3.50;99.90;;;;;;4992727;28;20049;-70
2021/12/06 08:07:24;;;;;;;42.85;25.50;;;3.50;99.90;;;;;;4976575;28;20421;-70
2021/12/06 08:09:50;;;;;;;44.92;25.33;;;3.50;99.90;;;;;;4976817;28;20038;-70
2021/12/06 08:12:16;;;;;;;46.95;25.88;;;3.50;99.90;;;;;;4992739;28;20453;-70
2021/12/06 08:14:41;;;;;;;45.17;25.88;;;3.60;99.90;;;;;;4992652;28;20130;-70
2021/12/06 08:17:07;;;;;;;47.55;27.38;;;3.50;99.90;;;;;;4976790;28;20042;-70
2021/12/06 08:19:33;;;;;;;44.15;25.85;;;3.60;99.90;;;;;;4976479;28;20042;-70
2021/12/06 08:21:58;;;;;;;50.28;26.88;;;3.60;99.90;;;;;;4992626;28;20039;-70
2021/12/06 08:24:24;;;;;;;47.85;28.08;;;3.50;99.90;;;;;;4992504;28;20092;-71
2021/12/06 08:26:50;;;;;;;47.83;26.95;;;3.50;99.90;;;;;;4992620;28;20060;-71
2021/12/06 08:29:16;;;;;;;50.80;28.52;;;3.50;99.90;;;;;;4992657;28;20050;-71
2021/12/06 08:31:44;;;;;;;44.83;25.85;;;3.50;99.90;;;;;;4992879;28;20113;-71
2021/12/06 08:34:10;;;;;;;47.97;26.65;;;3.50;99.90;;;;;;4992670;28;20097;-71
2021/12/06 08:36:36;;;;;;;48.35;25.40;;;3.40;99.90;;;;;;4992413;28;20129;-71
2021/12/06 08:39:04;;;;;;;42.28;25.30;;;3.40;99.90;;;;;;4992497;28;20133;-71
2021/12/06 08:41:30;;;;;;;43.15;25.02;;;3.40;99.90;;;;;;4992455;28;20494;-70
2021/12/06 08:43:57;;;;;;;46.05;25.80;;;3.40;99.90;;;;;;4976105;28;20046;-70
2021/12/06 08:46:27;;;;;;;43.95;25.30;;;3.40;99.90;;;;;;4976457;28;20046;-70
2021/12/06 08:48:55;;;;;;;41.83;25.20;;;3.50;99.90;;;;;;4976259;28;20042;-70
2021/12/06 08:51:29;;;;;;;45.63;26.00;;;3.40;99.90;;;;;;4992627;28;20131;-70
2021/12/06 08:53:56;;;;;;;41.85;24.63;;;3.40;99.90;;;;;;4992365;28;20049;-70
2021/12/06 08:56:22;;;;;;;40.35;23.80;;;3.50;99.90;;;;;;4992321;28;20167;-70
2021/12/06 08:58:48;;;;;;;37.47;22.88;;;3.50;99.90;;;;;;4992405;28;20069;-70
2021/12/06 09:01:14;;;;;;;37.38;21.98;;;3.50;99.90;;;;;;4994476;28;20038;-70
2021/12/06 09:03:40;;;;;;;36.50;21.63;;;3.50;99.90;;;;;;4996226;28;20038;-70
2021/12/06 09:06:09;;;;;;;34.05;22.08;;;3.40;99.90;;;;;;4980733;28;20077;-70
2021/12/06 09:08:37;;;;;;;37.03;20.73;;;3.40;99.90;;;;;;4996105;28;20042;-69
2021/12/06 09:11:04;;;;;;;37.83;21.23;;;3.40;99.90;;;;;;4996500;28;20034;-70
2021/12/06 09:13:31;;;;;;;36.15;21.90;;;3.40;99.90;;;;;;4996206;28;20042;-69
2021/12/06 09:15:59;;;;;;;36.50;22.52;;;3.40;99.90;;;;;;4996093;28;20494;-69
2021/12/06 09:18:29;;;;;;;39.80;22.92;;;3.40;99.90;;;;;;4995882;28;20499;-70
2021/12/06 09:20:57;;;;;;;42.80;25.63;;;3.40;99.90;;;;;;4996104;28;20499;-70
2021/12/06 09:23:23;;;;;;;40.90;25.10;;;3.50;99.90;;;;;;4995778;28;20046;-70
2021/12/06 09:25:49;;;;;;;45.03;27.23;;;3.40;99.90;;;;;;4995921;28;20561;-69
2021/12/06 09:28:17;;;;;;;49.83;27.90;;;3.40;99.90;;;;;;4995675;28;20042;-69
2021/12/06 09:30:44;;;;;;;53.17;30.80;;;3.40;99.90;;;;;;4995685;28;20117;-69
2021/12/06 09:33:12;;;;;;;54.40;31.30;;;3.30;99.90;;;;;;4995900;28;20050;-69
2021/12/06 09:35:41;;;;;;;59.83;33.38;;;3.20;99.90;;;;;;4979278;28;20034;-69
2021/12/06 09:38:08;;;;;;;60.17;34.30;;;3.20;99.90;;;;;;4995564;28;20053;-69
2021/12/06 09:40:37;;;;;;;62.35;35.22;;;3.20;99.90;;;;;;4995719;28;20069;-69
2021/12/06 09:43:06;;;;;;;65.22;37.30;;;3.20;99.90;;;;;;4995434;28;20438;-69
2021/12/06 09:45:32;;;;;;;71.20;39.65;;;3.30;99.90;;;;;;4996014;28;20047;-69
2021/12/06 09:48:01;;;;;;;67.88;38.72;;;3.30;99.90;;;;;;4995480;28;20069;-69
2021/12/06 09:50:32;;;;;;;64.03;36.03;;;3.30;99.90;;;;;;4979112;28;20457;-70
2021/12/06 09:53:01;;;;;;;54.08;33.35;;;3.30;99.90;;;;;;4995262;28;20042;-70
2021/12/06 09:55:29;;;;;;;57.22;32.55;;;3.30;99.90;;;;;;4995197;28;20066;-70
2021/12/06 09:57:55;;;;;;;54.53;30.23;;;3.30;99.90;;;;;;4995411;28;20034;-70
2021/12/06 10:00:24;;;;;;;49.13;29.35;;;3.30;99.90;;;;;;4995098;28;20056;-70
2021/12/06 10:02:51;;;;;;;48.85;28.63;;;3.30;99.90;;;;;;4979104;28;20446;-70
2021/12/06 10:05:17;;;;;;;42.30;24.63;;;3.30;99.90;;;;;;4978589;28;20502;-70
2021/12/06 10:07:43;;;;;;;39.28;22.80;;;3.20;99.90;;;;;;4994925;28;20051;-69
2021/12/06 10:10:12;;;;;;;49.45;24.20;;;3.20;99.90;;;;;;4994976;28;20041;-69
2021/12/06 10:12:38;;;;;;;51.20;23.88;;;3.20;99.90;;;;;;4993538;28;20042;-69
2021/12/06 10:15:05;;;;;;;36.78;22.05;;;3.20;99.90;;;;;;4995041;28;20080;-69
2021/12/06 10:17:32;;;;;;;35.30;21.08;;;3.30;99.90;;;;;;4994893;28;20038;-70
2021/12/06 10:19:58;;;;;;;34.80;20.83;;;3.30;99.90;;;;;;4995106;28;20088;-70
2021/12/06 10:22:24;;;;;;;38.15;21.58;;;3.30;99.90;;;;;;4995061;28;20407;-70
2021/12/06 10:24:57;;;;;;;37.20;22.17;;;3.30;99.90;;;;;;4978789;28;20050;-70
2021/12/06 10:27:25;;;;;;;43.60;22.40;;;3.30;99.90;;;;;;4994743;28;20410;-69
2021/12/06 10:30:01;;;;;;;41.25;23.65;;;3.40;99.90;;;;;;4995004;28;20041;-70
2021/12/06 10:32:30;;;;;;;42.53;22.70;;;3.40;99.90;;;;;;4995404;28;20061;-69
2021/12/06 10:35:00;;;;;;;41.53;23.23;;;3.40;99.90;;;;;;4978628;28;20532;-70
2021/12/06 10:37:36;;;;;;;39.60;22.27;;;3.40;99.90;;;;;;4978298;28;20057;-70
2021/12/06 10:40:07;;;;;;;35.83;21.27;;;3.40;99.90;;;;;;4994747;28;20054;-70
2021/12/06 10:42:39;;;;;;;37.78;22.13;;;3.40;99.90;;;;;;4994427;28;20046;-69
2021/12/06 10:45:19;;;;;;;33.97;19.23;;;3.30;99.90;;;;;;4994276;28;20046;-70
2021/12/06 10:48:06;;;;;;;35.03;19.92;;;3.30;99.90;;;;;;4994291;28;20050;-70
2021/12/06 10:50:31;;;;;;;36.17;20.48;;;3.30;99.90;;;;;;4994227;28;20039;-69
2021/12/06 10:52:59;;;;;;;34.45;20.00;;;3.30;99.90;;;;;;4978207;28;20046;-69
2021/12/06 10:55:30;;;;;;;34.58;19.98;;;3.30;99.90;;;;;;4977829;28;20391;-69
2021/12/06 10:57:58;;;;;;;32.85;19.70;;;3.30;99.90;;;;;;4994415;28;20601;-69
2021/12/06 11:00:48;;;;;;;28.95;18.15;;;3.30;99.90;;;;;;4994383;28;20054;-70
2021/12/06 11:03:24;;;;;;;30.30;19.55;;;3.30;99.90;;;;;;4994398;28;20078;-70
2021/12/06 11:05:58;;;;;;;33.28;19.30;;;3.30;99.90;;;;;;4993913;28;20054;-70
2021/12/06 11:08:25;;;;;;;31.65;19.02;;;3.30;99.90;;;;;;4977720;28;20125;-70
2021/12/06 11:10:55;;;;;;;30.42;18.75;;;3.40;99.90;;;;;;4994086;28;20041;-69
2021/12/06 11:13:36;;;;;;;28.80;18.15;;;3.30;99.90;;;;;;4977514;28;20038;-70
2021/12/06 11:16:17;;;;;;;27.08;17.40;;;3.30;99.90;;;;;;4977796;28;20045;-69
2021/12/06 11:18:47;;;;;;;27.05;17.48;;;3.30;99.90;;;;;;4977486;28;20130;-69
2021/12/06 11:21:21;;;;;;;31.45;17.95;;;3.30;99.90;;;;;;4993648;28;20133;-69
2021/12/06 11:23:58;;;;;;;29.23;16.75;;;3.30;99.90;;;;;;4977131;28;20153;-70
2021/12/06 11:26:24;;;;;;;29.15;17.98;;;3.30;99.90;;;;;;4977332;28;20049;-69
2021/12/06 11:28:50;;;;;;;30.55;18.55;;;3.30;99.90;;;;;;4977528;28;20042;-69
2021/12/06 11:31:18;;;;;;;29.90;19.33;;;3.30;99.90;;;;;;4993431;28;20121;-69
2021/12/06 11:33:55;;;;;;;34.20;20.60;;;3.30;99.90;;;;;;4977394;28;20133;-70
2021/12/06 11:36:23;;;;;;;37.20;20.17;;;3.30;99.90;;;;;;4977277;28;20088;-69
2021/12/06 11:38:55;;;;;;;37.10;20.48;;;3.30;99.90;;;;;;4993395;28;20074;-69
2021/12/06 11:41:21;;;;;;;37.72;21.13;;;3.40;99.90;;;;;;4993691;28;20440;-69
2021/12/06 11:43:47;;;;;;;37.25;21.08;;;3.40;99.90;;;;;;4993459;28;20121;-69
2021/12/06 11:46:25;;;;;;;39.60;21.63;;;3.40;99.90;;;;;;4993442;28;20133;-69
2021/12/06 11:48:50;;;;;;;38.75;20.63;;;3.40;99.90;;;;;;4993342;28;20085;-69
2021/12/06 11:51:18;;;;;;;36.80;20.85;;;3.40;99.90;;;;;;4993462;28;20078;-69
2021/12/06 11:53:51;;;;;;;36.75;21.23;;;3.50;99.90;;;;;;4992994;28;20038;-69
2021/12/06 11:56:20;;;;;;;34.42;20.45;;;3.50;99.90;;;;;;4993066;28;20093;-69
2021/12/06 11:58:48;;;;;;;38.58;21.15;;;3.50;99.90;;;;;;4992963;28;20506;-69
2021/12/06 12:01:29;;;;;;;37.83;20.65;;;3.60;99.90;;;;;;4993184;28;20034;-69
2021/12/06 12:03:58;;;;;;;36.72;21.33;;;3.60;99.90;;;;;;4976897;28;20088;-69
2021/12/06 12:06:37;;;;;;;34.40;19.13;;;3.70;99.90;;;;;;4992887;28;20463;-69
2021/12/06 12:09:30;;;;;;;32.88;18.88;;;3.70;99.90;;;;;;4992811;28;20042;-69
2021/12/06 12:12:22;;;;;;;30.07;18.13;;;3.70;99.90;;;;;;4987398;28;20054;-69
2021/12/06 12:14:54;;;;;;;34.95;19.67;;;3.70;99.90;;;;;;4992980;28;20360;-69
2021/12/06 12:17:40;;;;;;;36.65;18.50;;;3.70;99.90;;;;;;4976636;28;20038;-69
2021/12/06 12:20:10;;;;;;;35.22;19.25;;;3.70;99.90;;;;;;4992965;28;20049;-69
2021/12/06 12:22:37;;;;;;;38.80;20.10;;;3.70;99.90;;;;;;4976763;28;20031;-68
2021/12/06 12:25:09;;;;;;;33.13;19.15;;;3.70;99.90;;;;;;4992861;28;20169;-69
2021/12/06 12:27:44;;;;;;;33.42;18.65;;;3.70;99.90;;;;;;4992593;28;20052;-69
2021/12/06 12:30:10;;;;;;;37.88;19.30;;;3.70;99.90;;;;;;4992799;28;20034;-69
2021/12/06 12:32:35;;;;;;;37.17;20.92;;;3.70;99.90;;;;;;4992514;28;20042;-69
2021/12/06 12:35:06;;;;;;;36.72;20.98;;;3.70;99.90;;;;;;4991882;28;20049;-69
2021/12/06 12:37:34;;;;;;;38.47;23.55;;;3.70;99.90;;;;;;4992496;28;20089;-69
2021/12/06 12:40:06;;;;;;;44.15;24.08;;;3.70;99.90;;;;;;4992649;28;20140;-69
2021/12/06 12:42:33;;;;;;;41.03;23.38;;;3.70;99.90;;;;;;4992784;28;20418;-69
2021/12/06 12:45:00;;;;;;;42.25;23.23;;;3.70;99.90;;;;;;4992372;28;20042;-69
2021/12/06 12:47:32;;;;;;;41.53;23.40;;;3.70;99.90;;;;;;4992328;28;20049;-69
2021/12/06 12:50:09;;;;;;;46.70;25.75;;;3.70;99.90;;;;;;4992679;28;20038;-69
2021/12/06 12:52:43;;;;;;;45.47;25.83;;;3.70;99.90;;;;;;4992727;28;20039;-68
2021/12/06 12:55:20;;;;;;;;;;;3.70;99.90;;;;;;4992738;28;20074;-68
2021/12/06 12:57:46;;;;;;;55.88;28.05;;;3.70;99.90;;;;;;4992431;28;19964;-68
2021/12/06 13:00:18;;;;;;;57.38;28.17;;;3.70;99.90;;;;;;4992692;28;20129;-68